Time;durP1;ratioP1;P1;durP2;ratioP2;P2;SDS_P1;SDS_P2;PMS_P1;PMS_P2;Temp;Humidity;BMP_temperature;BMP_pressure;BME280_temperature;BME280_humidity;BME280_pressure;Samples;Min_cycle;Max_cycle;Signal;HPM_P1;HPM_P2
2023/05/24 00:00:37;;;;;;;12.55;4.25;;;;;;;7.95;96.60;102384.31;4970784;28;20043;-74
2023/05/24 00:03:03;;;;;;;10.20;3.63;;;;;;;7.91;97.69;102377.59;4970910;28;20039;-74
2023/05/24 00:05:29;;;;;;;5.85;2.47;;;;;;;7.90;98.69;102378.59;4971054;28;20031;-74
2023/05/24 00:07:55;;;;;;;9.40;3.13;;;;;;;7.92;98.62;102383.75;4970761;28;20031;-74
2023/05/24 00:10:21;;;;;;;8.88;2.75;;;;;;;7.85;98.11;102380.81;4970734;28;20041;-74
2023/05/24 00:12:46;;;;;;;12.45;4.80;;;;;;;7.80;98.72;102378.59;4953400;28;20394;-74
2023/05/24 00:15:11;;;;;;;11.60;3.42;;;;;;;7.81;99.08;102377.63;4970678;28;20065;-74
2023/05/24 00:17:39;;;;;;;9.98;3.08;;;;;;;7.79;99.05;102371.59;4953208;28;20060;-74
2023/05/24 00:20:09;;;;;;;11.85;4.38;;;;;;;7.74;99.97;102363.22;4970581;28;20101;-74
2023/05/24 00:22:36;;;;;;;12.80;4.30;;;;;;;7.69;100.00;102362.78;4970661;28;20030;-74
2023/05/24 00:25:02;;;;;;;9.82;3.47;;;;;;;7.68;100.00;102361.13;4937300;28;20305;-74
2023/05/24 00:27:27;;;;;;;15.30;4.68;;;;;;;7.70;100.00;102359.16;4970509;28;20039;-74
2023/05/24 00:29:53;;;;;;;12.07;3.33;;;;;;;7.66;100.00;102360.44;4970438;28;20038;-74
2023/05/24 00:32:18;;;;;;;13.23;4.13;;;;;;;7.65;100.00;102362.25;4970552;28;20027;-74
2023/05/24 00:34:44;;;;;;;10.27;3.03;;;;;;;7.61;100.00;102362.66;4953193;28;20079;-73
2023/05/24 00:37:09;;;;;;;10.90;4.20;;;;;;;7.53;100.00;102349.25;4972060;28;20039;-74
2023/05/24 00:39:35;;;;;;;15.80;5.10;;;;;;;7.53;100.00;102347.44;4956980;28;20030;-73
2023/05/24 00:42:01;;;;;;;10.43;3.67;;;;;;;7.54;100.00;102351.75;4956692;28;20031;-74
2023/05/24 00:44:26;;;;;;;10.40;2.85;;;;;;;7.50;100.00;102350.38;4974277;28;20034;-74
2023/05/24 00:46:52;;;;;;;14.57;3.88;;;;;;;7.54;100.00;102361.53;4974122;28;20031;-73
2023/05/24 00:49:18;;;;;;;8.63;2.95;;;;;;;7.49;100.00;102363.78;4974318;28;20049;-74
2023/05/24 00:51:44;;;;;;;9.35;3.83;;;;;;;7.46;100.00;102362.22;4974240;28;20154;-74
2023/05/24 00:54:12;;;;;;;12.55;4.15;;;;;;;7.48;100.00;102354.97;4974164;28;20141;-74
2023/05/24 00:56:38;;;;;;;18.60;4.25;;;;;;;7.45;100.00;102348.13;4974157;28;20045;-73
2023/05/24 00:59:04;;;;;;;8.30;3.70;;;;;;;7.46;100.00;102347.13;4974105;28;20055;-74
2023/05/24 01:01:29;;;;;;;16.92;3.55;;;;;;;7.46;100.00;102341.81;4973908;28;20448;-74
2023/05/24 01:03:56;;;;;;;16.50;3.60;;;;;;;7.46;100.00;102341.00;4974084;28;20122;-74
2023/05/24 01:06:23;;;;;;;9.85;3.13;;;;;;;7.43;100.00;102339.47;4974016;28;20110;-74
2023/05/24 01:09:05;;;;;;;21.30;5.25;;;;;;;7.49;100.00;102337.22;4974132;28;20030;-74
2023/05/24 01:11:52;;;;;;;19.40;4.43;;;;;;;7.46;100.00;102328.56;4974018;28;20027;-74
2023/05/24 01:14:18;;;;;;;10.02;3.95;;;;;;;7.53;100.00;102339.47;4973840;28;20023;-74
2023/05/24 01:17:05;;;;;;;9.27;3.28;;;;;;;7.55;100.00;102334.84;4973716;28;20147;-74
2023/05/24 01:19:53;;;;;;;15.68;3.65;;;;;;;7.51;100.00;102327.31;4973644;28;20513;-73
2023/05/24 01:22:46;;;;;;;10.77;3.70;;;;;;;7.53;100.00;102333.31;4991796;28;20039;-74
2023/05/24 01:25:21;;;;;;;13.85;4.00;;;;;;;7.38;100.00;102323.09;4992432;28;20641;-74
2023/05/24 01:27:48;;;;;;;10.55;3.20;;;;;;;7.44;100.00;102333.19;4992232;28;20038;-74
2023/05/24 01:30:14;;;;;;;13.20;3.60;;;;;;;7.38;100.00;102324.94;4992812;28;20088;-73
2023/05/24 01:32:40;;;;;;;10.18;3.72;;;;;;;7.33;100.00;102322.69;4973584;28;20690;-73
2023/05/24 01:35:06;;;;;;;13.77;4.45;;;;;;;7.27;100.00;102328.56;4973363;28;20165;-74
2023/05/24 01:37:31;;;;;;;11.55;4.60;;;;;;;7.24;100.00;102320.88;4956034;28;20504;-74
2023/05/24 01:39:57;;;;;;;13.48;4.13;;;;;;;7.23;100.00;102330.66;4973318;28;20038;-73
2023/05/24 01:42:25;;;;;;;9.02;3.88;;;;;;;7.22;100.00;102328.13;4973425;28;20165;-73
2023/05/24 01:45:17;;;;;;;12.88;3.53;;;;;;;7.19;100.00;102325.75;4955729;28;20026;-73
2023/05/24 01:48:07;;;;;;;6.85;2.90;;;;;;;7.14;100.00;102330.63;4973076;28;20520;-73
2023/05/24 01:51:00;;;;;;;12.88;3.85;;;;;;;7.12;100.00;102322.81;4973240;28;20421;-73
2023/05/24 01:53:32;;;;;;;18.67;4.07;;;;;;;7.05;100.00;102313.75;4973122;28;20027;-73
2023/05/24 01:56:01;;;;;;;14.60;4.30;;;;;;;7.03;100.00;102318.34;4975480;28;20061;-74
2023/05/24 01:58:30;;;;;;;11.20;3.78;;;;;;;7.00;100.00;102318.63;4991378;28;20030;-73
2023/05/24 02:00:56;;;;;;;12.43;4.47;;;;;;;6.97;100.00;102308.28;4991575;28;20022;-74
2023/05/24 02:03:21;;;;;;;12.52;3.67;;;;;;;7.02;100.00;102322.81;4991507;28;20045;-73
2023/05/24 02:05:47;;;;;;;15.05;4.60;;;;;;;6.98;100.00;102324.03;4991372;28;20493;-73
2023/05/24 02:08:12;;;;;;;7.85;3.75;;;;;;;7.01;100.00;102329.06;4991535;28;20031;-73
2023/05/24 02:10:39;;;;;;;14.85;3.22;;;;;;;7.01;100.00;102333.53;4991344;28;20038;-73
2023/05/24 02:13:08;;;;;;;11.35;3.38;;;;;;;6.95;100.00;102331.44;4991480;28;20026;-73
2023/05/24 02:15:37;;;;;;;12.68;5.03;;;;;;;6.92;100.00;102329.91;4991447;28;20371;-73
2023/05/24 02:18:06;;;;;;;8.38;3.50;;;;;;;6.90;100.00;102331.03;4991357;28;20437;-73
2023/05/24 02:20:35;;;;;;;12.18;4.22;;;;;;;6.85;100.00;102338.53;4991249;28;20030;-74
2023/05/24 02:23:01;;;;;;;9.07;3.33;;;;;;;6.84;100.00;102342.16;4991529;28;20058;-73
2023/05/24 02:25:26;;;;;;;10.65;3.20;;;;;;;6.75;100.00;102335.84;4991055;28;20030;-73
2023/05/24 02:27:52;;;;;;;12.07;3.28;;;;;;;6.73;100.00;102345.75;4991127;28;20080;-74
2023/05/24 02:30:17;;;;;;;10.98;3.20;;;;;;;6.68;100.00;102351.47;4973696;28;20173;-73
2023/05/24 02:32:42;;;;;;;15.07;3.90;;;;;;;6.66;100.00;102350.75;4991119;28;20034;-73
2023/05/24 02:35:08;;;;;;;9.35;3.83;;;;;;;6.71;100.00;102343.25;4990876;28;20538;-73
2023/05/24 02:37:33;;;;;;;10.55;3.80;;;;;;;6.73;100.00;102345.75;4991302;28;20029;-74
2023/05/24 02:39:59;;;;;;;14.52;4.53;;;;;;;6.72;100.00;102339.59;4973360;28;20057;-74
2023/05/24 02:42:24;;;;;;;10.38;4.55;;;;;;;6.68;100.00;102338.22;4973242;28;20045;-73
2023/05/24 02:44:51;;;;;;;9.90;3.47;;;;;;;6.67;100.00;102341.00;4990731;28;20066;-74
2023/05/24 02:47:17;;;;;;;7.70;3.72;;;;;;;6.64;100.00;102336.78;4990564;28;20046;-73
2023/05/24 02:49:43;;;;;;;12.35;3.08;;;;;;;6.62;100.00;102332.59;4990680;28;20019;-74
2023/05/24 02:52:08;;;;;;;9.20;3.53;;;;;;;6.64;100.00;102346.56;4990648;28;20674;-73
2023/05/24 02:54:34;;;;;;;12.68;4.65;;;;;;;6.59;100.00;102350.44;4990619;28;20058;-73
2023/05/24 02:57:00;;;;;;;11.43;5.30;;;;;;;6.53;100.00;102340.38;4972940;28;20136;-74
2023/05/24 02:59:25;;;;;;;9.50;3.33;;;;;;;6.50;100.00;102340.66;4989789;28;20054;-74
2023/05/24 03:01:51;;;;;;;11.98;4.65;;;;;;;6.53;100.00;102347.50;4990501;28;20037;-74
2023/05/24 03:04:16;;;;;;;13.25;3.55;;;;;;;6.51;100.00;102341.50;4991118;28;20049;-74
2023/05/24 03:06:42;;;;;;;12.95;4.07;;;;;;;6.42;100.00;102334.31;4990630;28;20034;-74
2023/05/24 03:09:08;;;;;;;13.93;4.35;;;;;;;6.45;100.00;102334.91;4990452;28;20034;-74
2023/05/24 03:11:33;;;;;;;12.90;3.75;;;;;;;6.51;100.00;102334.38;4990170;28;20065;-74
2023/05/24 03:13:58;;;;;;;8.77;4.00;;;;;;;6.47;100.00;102327.69;4990221;28;20035;-74
2023/05/24 03:16:24;;;;;;;10.43;3.08;;;;;;;6.42;100.00;102329.88;4990114;28;20493;-74
2023/05/24 03:18:49;;;;;;;12.57;3.80;;;;;;;6.44;100.00;102325.25;4990135;28;20607;-74
2023/05/24 03:21:16;;;;;;;13.75;4.65;;;;;;;6.44;100.00;102327.09;4989907;28;20030;-74
2023/05/24 03:23:41;;;;;;;11.13;4.75;;;;;;;6.44;100.00;102330.56;4990127;28;20019;-74
2023/05/24 03:26:06;;;;;;;13.23;4.25;;;;;;;6.42;100.00;102334.31;4990099;28;20401;-74
2023/05/24 03:28:32;;;;;;;14.68;4.05;;;;;;;6.40;100.00;102328.34;4989914;28;20041;-74
2023/05/24 03:30:58;;;;;;;9.25;2.83;;;;;;;6.36;100.00;102333.88;4989949;28;20065;-74
2023/05/24 03:33:23;;;;;;;12.50;3.40;;;;;;;6.29;100.00;102324.81;4989933;28;20038;-74
2023/05/24 03:35:49;;;;;;;12.75;3.45;;;;;;;6.30;100.00;102315.88;4990333;28;20037;-74
2023/05/24 03:38:14;;;;;;;11.07;3.90;;;;;;;6.37;100.00;102329.44;4989674;28;20037;-74
2023/05/24 03:40:39;;;;;;;8.65;3.92;;;;;;;6.40;100.00;102328.34;4989614;28;20084;-74
2023/05/24 03:43:05;;;;;;;7.35;3.50;;;;;;;6.38;100.00;102328.47;4989521;28;20030;-74
2023/05/24 03:45:30;;;;;;;10.07;3.53;;;;;;;6.38;100.00;102332.91;4972106;28;20537;-74
2023/05/24 03:47:56;;;;;;;10.10;4.35;;;;;;;6.32;100.00;102321.88;4989390;28;20042;-74
2023/05/24 03:50:21;;;;;;;19.88;4.85;;;;;;;6.30;100.00;102318.50;4989565;28;20053;-74
2023/05/24 03:52:46;;;;;;;13.00;3.88;;;;;;;6.32;100.00;102313.94;4989512;28;20129;-74
2023/05/24 03:55:13;;;;;;;12.73;3.70;;;;;;;6.33;100.00;102320.91;4989456;28;20066;-74
2023/05/24 03:57:40;;;;;;;12.52;3.65;;;;;;;6.36;100.00;102311.84;4971853;28;20125;-74
2023/05/24 04:00:06;;;;;;;14.35;3.70;;;;;;;6.40;100.00;102323.88;4989147;28;20108;-74
2023/05/24 04:02:32;;;;;;;11.13;3.75;;;;;;;6.48;100.00;102326.69;4971327;28;20108;-74
2023/05/24 04:04:57;;;;;;;14.65;5.82;;;;;;;6.54;100.00;102327.97;4989500;28;20030;-74
2023/05/24 04:07:23;;;;;;;16.60;4.45;;;;;;;6.58;100.00;102321.44;4989545;28;20035;-74
2023/05/24 04:09:48;;;;;;;13.32;5.00;;;;;;;6.57;100.00;102311.78;4989082;28;20516;-74
2023/05/24 04:12:14;;;;;;;13.88;3.83;;;;;;;6.58;100.00;102322.28;4988325;28;20037;-74
2023/05/24 04:14:39;;;;;;;16.15;6.40;;;;;;;6.55;100.00;102311.94;4988977;28;20045;-74
2023/05/24 04:17:06;;;;;;;10.25;4.32;;;;;;;6.54;100.00;102307.59;4971648;28;20038;-74
2023/05/24 04:19:32;;;;;;;9.23;3.53;;;;;;;6.68;100.00;102329.41;4971532;28;20038;-74
2023/05/24 04:21:57;;;;;;;23.55;6.68;;;;;;;6.70;100.00;102328.28;4989302;28;20046;-74
2023/05/24 04:24:22;;;;;;;9.25;3.28;;;;;;;6.72;100.00;102328.16;4989154;28;20069;-74
2023/05/24 04:26:48;;;;;;;14.50;4.38;;;;;;;6.78;100.00;102331.09;4971543;28;20128;-74
2023/05/24 04:29:13;;;;;;;14.55;4.18;;;;;;;6.78;100.00;102320.50;4989047;28;20658;-74
2023/05/24 04:31:44;;;;;;;12.60;4.07;;;;;;;6.87;100.00;102321.53;4971785;28;20096;-74
2023/05/24 04:34:12;;;;;;;17.70;5.40;;;;;;;6.92;100.00;102315.81;4989033;28;20037;-74
2023/05/24 04:36:37;;;;;;;11.98;4.40;;;;;;;7.05;100.00;102326.13;4988956;28;20030;-74
2023/05/24 04:39:04;;;;;;;12.13;3.70;;;;;;;7.10;100.00;102322.13;4971764;28;20039;-74
2023/05/24 04:41:34;;;;;;;12.20;3.95;;;;;;;7.23;100.00;102328.00;4969880;28;20035;-74
2023/05/24 04:44:00;;;;;;;12.48;4.03;;;;;;;7.32;100.00;102334.28;4953485;28;20154;-74
2023/05/24 04:46:26;;;;;;;13.68;4.55;;;;;;;7.42;100.00;102337.78;4970218;28;20055;-74
2023/05/24 04:48:52;;;;;;;18.95;4.80;;;;;;;7.52;100.00;102332.50;4989379;28;20467;-74
2023/05/24 04:51:18;;;;;;;14.68;5.05;;;;;;;7.63;100.00;102329.69;4988950;28;20062;-74
2023/05/24 04:53:43;;;;;;;16.42;3.97;;;;;;;7.79;100.00;102336.25;4988916;28;20034;-74
2023/05/24 04:56:09;;;;;;;12.38;4.43;;;;;;;7.86;100.00;102330.22;4988734;28;20031;-74
2023/05/24 04:58:34;;;;;;;14.35;4.60;;;;;;;8.05;100.00;102329.34;4955043;28;20042;-74
2023/05/24 05:01:00;;;;;;;13.68;4.30;;;;;;;8.19;100.00;102336.00;4988668;28;20027;-74
2023/05/24 05:03:26;;;;;;;14.50;4.78;;;;;;;8.34;100.00;102337.22;4989049;28;20030;-74
2023/05/24 05:05:52;;;;;;;16.33;3.92;;;;;;;8.44;100.00;102331.91;4988887;28;20038;-74
2023/05/24 05:08:18;;;;;;;13.88;4.18;;;;;;;8.51;100.00;102333.00;4988937;28;20077;-74
2023/05/24 05:10:43;;;;;;;16.48;5.07;;;;;;;8.66;100.00;102327.19;4988922;28;20093;-74
2023/05/24 05:13:09;;;;;;;17.20;4.35;;;;;;;8.90;100.00;102337.28;4971538;28;20125;-74
2023/05/24 05:15:34;;;;;;;14.02;4.80;;;;;;;8.94;100.00;102336.00;4967677;28;20030;-74
2023/05/24 05:17:59;;;;;;;16.02;4.07;;;;;;;8.97;100.00;102335.72;4975671;28;20437;-74
2023/05/24 05:20:25;;;;;;;22.83;5.90;;;;;;;9.04;100.00;102344.78;4952914;28;20434;-74
2023/05/24 05:22:50;;;;;;;22.33;6.18;;;;;;;9.16;100.00;102343.56;4971785;28;20562;-74
2023/05/24 05:25:15;;;;;;;15.65;4.18;;;;;;;9.29;100.00;102340.53;4973858;28;20038;-73
2023/05/24 05:27:41;;;;;;;16.83;5.97;;;;;;;9.49;100.00;102346.56;4974055;28;20035;-74
2023/05/24 05:30:07;;;;;;;19.08;4.97;;;;;;;9.53;100.00;102342.56;4973699;28;20038;-74
2023/05/24 05:32:33;;;;;;;16.30;5.80;;;;;;;9.66;100.00;102344.84;4973814;28;20162;-74
2023/05/24 05:34:58;;;;;;;16.77;3.90;;;;;;;9.79;100.00;102347.13;4973627;28;20113;-74
2023/05/24 05:37:23;;;;;;;16.33;5.43;;;;;;;9.83;100.00;102345.84;4973754;28;20039;-73
2023/05/24 05:39:49;;;;;;;16.02;5.22;;;;;;;9.88;100.00;102346.22;4973690;28;20026;-73
2023/05/24 05:42:14;;;;;;;23.70;6.57;;;;;;;9.96;100.00;102338.28;4973524;28;20129;-73
2023/05/24 05:44:40;;;;;;;18.27;5.10;;;;;;;10.05;100.00;102332.00;4973417;28;20027;-73
2023/05/24 05:47:07;;;;;;;24.05;5.28;;;;;;;10.19;100.00;102351.94;4973019;28;20070;-73
2023/05/24 05:49:35;;;;;;;18.35;5.93;;;;;;;10.23;100.00;102347.09;4975371;28;20035;-73
2023/05/24 05:52:01;;;;;;;12.07;4.72;;;;;;;10.31;100.00;102347.19;4973490;28;20038;-73
2023/05/24 05:54:27;;;;;;;21.85;5.40;;;;;;;10.35;100.00;102348.56;4992060;28;20506;-73
2023/05/24 05:56:53;;;;;;;19.80;5.60;;;;;;;10.42;100.00;102343.41;4991415;28;20040;-73
2023/05/24 05:59:18;;;;;;;21.85;6.90;;;;;;;10.50;100.00;102354.94;4991645;28;21069;-72
2023/05/24 06:01:47;;;;;;;19.67;5.57;;;;;;;10.55;100.00;102350.97;4972951;28;20034;-75
2023/05/24 06:04:14;;;;;;;15.45;5.72;;;;;;;10.52;100.00;102354.78;4973127;28;20064;-75
2023/05/24 06:06:39;;;;;;;17.55;4.97;;;;;;;10.49;100.00;102347.94;4973167;28;20038;-75
2023/05/24 06:09:05;;;;;;;14.95;5.82;;;;;;;10.54;100.00;102350.16;4955773;28;20034;-75
2023/05/24 06:11:30;;;;;;;24.08;5.35;;;;;;;10.57;100.00;102349.81;4973050;28;20038;-74
2023/05/24 06:13:56;;;;;;;16.48;6.10;;;;;;;10.60;100.00;102349.50;4973005;28;20066;-74
2023/05/24 06:16:21;;;;;;;26.38;5.70;;;;;;;10.60;100.00;102356.66;4972815;28;20037;-75
2023/05/24 06:18:47;;;;;;;20.05;6.75;;;;;;;10.68;100.00;102370.03;4978687;28;20031;-74
2023/05/24 06:21:13;;;;;;;21.10;6.85;;;;;;;10.74;100.00;102369.41;4990460;28;20566;-72
2023/05/24 06:23:39;;;;;;;13.85;4.68;;;;;;;10.83;100.00;102356.94;4966603;28;20041;-73
2023/05/24 06:26:08;;;;;;;19.88;6.07;;;;;;;10.79;99.63;102358.25;4974241;28;20031;-75
2023/05/24 06:28:34;;;;;;;27.50;6.13;;;;;;;10.88;100.00;102367.97;4975224;28;20060;-76
2023/05/24 06:30:59;;;;;;;19.50;4.82;;;;;;;10.97;99.53;102373.16;4980636;28;20054;-79
2023/05/24 06:33:26;;;;;;;25.77;6.95;;;;;;;11.03;99.35;102374.38;4955833;28;20474;-75
2023/05/24 06:35:51;;;;;;;20.73;6.38;;;;;;;11.06;100.00;102376.72;4973050;28;20038;-75
2023/05/24 06:38:17;;;;;;;18.42;5.07;;;;;;;11.07;100.00;102375.69;4972646;28;20096;-75
2023/05/24 06:40:42;;;;;;;17.38;5.65;;;;;;;11.09;100.00;102365.69;4972510;28;20550;-75
2023/05/24 06:43:08;;;;;;;13.10;5.75;;;;;;;11.11;99.12;102361.03;4972516;28;20034;-76
2023/05/24 06:45:33;;;;;;;17.63;7.40;;;;;;;11.17;99.38;102365.72;4972496;28;20086;-74
2023/05/24 06:47:58;;;;;;;25.73;6.88;;;;;;;11.19;98.41;102374.41;4972306;28;20036;-74
2023/05/24 06:50:24;;;;;;;19.25;7.07;;;;;;;11.23;98.77;102369.56;4980330;28;20477;-74
2023/05/24 06:52:49;;;;;;;15.10;6.72;;;;;;;11.18;98.83;102356.69;4979029;28;20465;-79
2023/05/24 06:55:14;;;;;;;17.38;5.63;;;;;;;11.31;99.42;102369.56;4981595;28;20027;-69
2023/05/24 06:57:40;;;;;;;19.40;6.18;;;;;;;11.42;97.95;102365.75;4981573;28;20085;-72
2023/05/24 07:00:11;;;;;;;21.35;6.50;;;;;;;11.45;97.36;102373.47;4982127;28;20509;-73
2023/05/24 07:02:37;;;;;;;15.70;5.80;;;;;;;11.53;95.86;102376.13;4981111;28;20026;-74
2023/05/24 07:05:03;;;;;;;15.00;5.40;;;;;;;11.63;93.71;102376.81;4981816;28;20026;-75
2023/05/24 07:07:28;;;;;;;16.42;4.82;;;;;;;11.71;94.01;102372.47;4966514;28;20097;-76
2023/05/24 07:09:54;;;;;;;15.98;6.32;;;;;;;11.93;92.68;102373.69;4981877;28;20034;-75
2023/05/24 07:12:19;;;;;;;19.40;5.80;;;;;;;12.00;91.53;102380.03;4982118;28;20045;-76
2023/05/24 07:14:45;;;;;;;9.10;4.10;;;;;;;12.07;91.56;102386.34;4981350;28;20032;-76
2023/05/24 07:17:11;;;;;;;19.35;5.75;;;;;;;12.07;91.97;102389.03;4964105;28;20646;-76
2023/05/24 07:19:36;;;;;;;15.98;5.40;;;;;;;12.12;92.90;102389.34;4980790;28;20049;-76
2023/05/24 07:22:01;;;;;;;18.08;5.07;;;;;;;12.21;88.97;102390.19;4963783;28;20494;-75
2023/05/24 07:24:27;;;;;;;18.55;4.68;;;;;;;12.23;88.75;102393.53;4981006;28;20052;-76
2023/05/24 07:26:52;;;;;;;21.23;6.30;;;;;;;12.23;88.12;102393.53;4981006;28;20052;-75
2023/05/24 07:29:18;;;;;;;13.63;4.57;;;;;;;12.17;88.07;102395.03;4981468;28;20482;-73
2023/05/24 07:31:44;;;;;;;22.05;6.28;;;;;;;12.12;88.89;102386.69;4980777;28;20042;-75
2023/05/24 07:34:09;;;;;;;12.55;5.20;;;;;;;12.14;87.60;102394.56;4981097;28;20041;-74
2023/05/24 07:36:35;;;;;;;14.93;5.60;;;;;;;12.15;87.95;102393.53;4982017;28;20026;-73
2023/05/24 07:39:03;;;;;;;13.93;4.43;;;;;;;12.17;86.62;102394.22;4981293;28;20378;-75
2023/05/24 07:41:28;;;;;;;19.58;5.85;;;;;;;12.16;86.66;102393.38;4965842;28;20038;-74
2023/05/24 07:43:54;;;;;;;13.10;5.55;;;;;;;12.21;86.59;102392.88;4980803;28;20026;-74
2023/05/24 07:46:20;;;;;;;16.88;5.85;;;;;;;12.28;84.48;102404.53;4979815;28;20034;-74
2023/05/24 07:48:46;;;;;;;15.63;5.13;;;;;;;12.33;83.96;102388.81;4981131;28;20375;-74
2023/05/24 07:51:11;;;;;;;18.98;5.32;;;;;;;12.39;88.45;102376.59;4963726;28;20366;-73
2023/05/24 07:53:36;;;;;;;19.52;4.97;;;;;;;12.51;85.02;102393.97;4980923;28;20376;-74
2023/05/24 07:56:02;;;;;;;9.70;3.97;;;;;;;12.79;84.59;102393.56;4981063;28;20026;-75
2023/05/24 07:58:28;;;;;;;18.85;4.63;;;;;;;13.06;83.69;102394.94;4980310;28;20042;-73
2023/05/24 08:00:53;;;;;;;16.20;4.00;;;;;;;13.21;81.66;102384.31;4980740;28;20031;-73
2023/05/24 08:03:18;;;;;;;10.70;3.67;;;;;;;13.24;77.56;102402.72;4980701;28;20031;-69
2023/05/24 08:05:44;;;;;;;12.65;5.07;;;;;;;13.26;78.41;102403.38;4981120;28;20105;-70
2023/05/24 08:08:09;;;;;;;16.48;4.43;;;;;;;13.25;79.29;102399.84;4979842;28;20049;-71
2023/05/24 08:10:35;;;;;;;12.63;5.03;;;;;;;13.61;76.52;102395.81;4981188;28;20113;-70
2023/05/24 08:13:02;;;;;;;15.57;5.68;;;;;;;13.62;76.99;102389.44;4980851;28;20030;-69
2023/05/24 08:15:27;;;;;;;8.32;2.88;;;;;;;13.84;75.85;102383.22;4980966;28;20101;-71
2023/05/24 08:17:53;;;;;;;9.77;3.28;;;;;;;13.97;74.72;102386.13;4981131;28;20034;-74
2023/05/24 08:20:18;;;;;;;11.57;3.75;;;;;;;13.68;74.68;102389.56;4979600;28;20026;-71
2023/05/24 08:22:44;;;;;;;9.63;3.78;;;;;;;14.52;76.19;102378.72;4964772;28;20145;-72
2023/05/24 08:25:12;;;;;;;11.98;4.22;;;;;;;17.09;68.38;102374.16;4980491;28;20157;-70
2023/05/24 08:27:38;;;;;;;11.32;3.70;;;;;;;18.97;57.12;102382.81;4980905;28;20034;-73
2023/05/24 08:30:04;;;;;;;13.43;4.05;;;;;;;18.15;57.78;102368.03;4981372;28;20044;-76
2023/05/24 08:32:29;;;;;;;11.35;4.38;;;;;;;17.39;58.56;102379.22;4962551;28;20099;-76
2023/05/24 08:34:55;;;;;;;9.43;4.20;;;;;;;16.48;60.58;102383.00;4980214;28;20062;-74
2023/05/24 08:37:21;;;;;;;17.55;4.05;;;;;;;15.98;64.28;102383.06;4980431;28;20038;-74
2023/05/24 08:39:47;;;;;;;10.65;3.85;;;;;;;15.81;64.49;102376.28;4980302;28;20026;-73
2023/05/24 08:42:14;;;;;;;15.73;3.58;;;;;;;15.54;66.64;102372.50;4980449;28;20038;-71
2023/05/24 08:44:46;;;;;;;12.90;3.67;;;;;;;15.56;67.31;102373.97;4980306;28;20030;-74
2023/05/24 08:47:13;;;;;;;11.50;4.60;;;;;;;16.20;66.52;102359.59;4980172;28;20033;-75
2023/05/24 08:49:40;;;;;;;15.20;5.53;;;;;;;18.18;59.03;102371.19;4979957;28;20588;-73
2023/05/24 08:52:10;;;;;;;10.35;3.58;;;;;;;18.43;55.09;102366.97;4980821;28;20092;-75
2023/05/24 08:54:36;;;;;;;7.80;3.10;;;;;;;17.59;57.42;102368.47;4980012;28;20030;-74
2023/05/24 08:57:02;;;;;;;11.07;2.90;;;;;;;16.87;58.41;102370.75;4980388;28;20026;-71
2023/05/24 08:59:27;;;;;;;10.52;3.45;;;;;;;16.31;60.33;102368.16;4983944;28;20108;-77
2023/05/24 09:01:53;;;;;;;15.55;3.50;;;;;;;15.80;61.52;102368.38;4984211;28;20030;-76
2023/05/24 09:04:23;;;;;;;11.52;4.05;;;;;;;15.69;63.35;102357.16;4968917;28;20156;-73
2023/05/24 09:06:51;;;;;;;8.77;3.00;;;;;;;15.63;62.58;102360.56;4984300;28;20463;-72
2023/05/24 09:09:20;;;;;;;8.82;3.55;;;;;;;15.67;63.27;102355.66;4983206;28;20470;-75
2023/05/24 09:11:48;;;;;;;17.65;5.30;;;;;;;15.80;64.07;102349.56;4983476;28;20053;-77
2023/05/24 09:14:14;;;;;;;12.70;2.88;;;;;;;15.89;62.91;102346.53;4983395;28;20484;-76
2023/05/24 09:16:40;;;;;;;12.38;2.72;;;;;;;16.06;61.03;102351.63;4984130;28;20109;-77
2023/05/24 09:19:05;;;;;;;12.88;3.17;;;;;;;16.08;60.99;102349.56;4983174;28;20045;-78
2023/05/24 09:21:31;;;;;;;6.38;2.83;;;;;;;16.10;61.05;102356.44;4983021;28;20030;-75
2023/05/24 09:23:57;;;;;;;15.13;2.90;;;;;;;15.97;60.38;102351.78;4984558;28;20746;-74
2023/05/24 09:26:23;;;;;;;12.23;3.88;;;;;;;15.68;61.49;102349.22;4982157;28;20456;-74
2023/05/24 09:28:50;;;;;;;16.10;3.67;;;;;;;15.37;64.11;102349.56;4982683;28;20493;-74
2023/05/24 09:31:15;;;;;;;12.93;3.08;;;;;;;15.08;63.87;102343.25;4983267;28;20520;-75
2023/05/24 09:33:41;;;;;;;10.57;3.55;;;;;;;14.93;65.17;102345.97;4982286;28;20027;-75
2023/05/24 09:36:06;;;;;;;13.85;3.60;;;;;;;15.02;65.01;102344.88;4983436;28;20089;-74
2023/05/24 09:38:32;;;;;;;7.80;2.40;;;;;;;15.18;64.16;102334.91;4983328;28;20094;-74
2023/05/24 09:41:07;;;;;;;12.02;3.53;;;;;;;15.45;62.97;102346.75;4983415;28;20034;-71
2023/05/24 09:43:45;;;;;;;10.50;4.13;;;;;;;15.30;61.62;102341.41;4983071;28;21256;-71
2023/05/24 09:46:15;;;;;;;14.80;3.85;;;;;;;15.30;63.69;102336.91;4978618;28;20033;-71
2023/05/24 09:48:54;;;;;;;12.00;3.63;;;;;;;15.43;63.86;102332.66;4980576;28;20466;-71
2023/05/24 09:51:20;;;;;;;7.93;3.35;;;;;;;15.61;61.69;102341.09;4980008;28;20034;-71
2023/05/24 09:53:47;;;;;;;11.15;2.85;;;;;;;15.89;61.86;102335.78;4978322;28;20031;-71
2023/05/24 09:56:12;;;;;;;8.00;3.22;;;;;;;16.02;61.20;102337.75;4979761;28;20797;-71
2023/05/24 09:58:38;;;;;;;12.38;3.97;;;;;;;16.05;60.48;102339.22;4979796;28;20058;-71
2023/05/24 10:01:09;;;;;;;14.93;3.88;;;;;;;16.00;60.10;102323.63;4980200;28;20116;-71
2023/05/24 10:03:36;;;;;;;18.08;3.38;;;;;;;15.89;61.19;102333.09;4979484;28;20026;-71
2023/05/24 10:06:05;;;;;;;14.13;3.30;;;;;;;15.75;62.15;102334.03;4979644;28;20822;-71
2023/05/24 10:08:33;;;;;;;12.88;2.97;;;;;;;15.66;63.45;102344.03;4980141;28;20026;-71
2023/05/24 10:11:00;;;;;;;13.95;3.40;;;;;;;15.51;62.22;102335.22;4981227;28;20118;-71
2023/05/24 10:13:26;;;;;;;13.10;3.92;;;;;;;15.43;62.23;102338.03;4979560;28;20030;-71
2023/05/24 10:15:51;;;;;;;12.35;3.67;;;;;;;15.39;61.93;102329.53;4981854;28;20041;-71
2023/05/24 10:18:17;;;;;;;9.90;3.25;;;;;;;15.26;61.48;102337.47;4952906;28;20160;-71
2023/05/24 10:20:43;;;;;;;16.95;4.43;;;;;;;15.13;61.43;102346.22;4981403;28;20062;-71
2023/05/24 10:23:10;;;;;;;9.50;4.00;;;;;;;15.00;61.61;102346.06;4964538;28;20034;-71
2023/05/24 10:25:40;;;;;;;12.15;3.97;;;;;;;14.81;62.94;102340.28;4981206;28;20029;-71
2023/05/24 10:28:09;;;;;;;10.73;3.30;;;;;;;14.71;63.08;102345.09;4981042;28;20113;-71
2023/05/24 10:30:39;;;;;;;10.90;3.75;;;;;;;14.62;64.15;102340.88;4982393;28;20022;-70
2023/05/24 10:33:07;;;;;;;12.23;3.45;;;;;;;14.53;64.57;102331.22;4966574;28;20046;-70
2023/05/24 10:35:34;;;;;;;9.23;4.20;;;;;;;14.48;64.92;102348.69;4982020;28;20030;-70
2023/05/24 10:38:06;;;;;;;7.57;3.17;;;;;;;14.47;64.49;102343.53;4982329;28;20100;-70
2023/05/24 10:40:32;;;;;;;10.48;3.13;;;;;;;14.59;65.37;102338.53;4982281;28;20050;-70
2023/05/24 10:42:58;;;;;;;10.75;3.20;;;;;;;14.61;64.26;102340.00;4980958;28;20129;-70
2023/05/24 10:45:23;;;;;;;10.10;4.40;;;;;;;14.58;65.30;102347.63;4981288;28;20121;-70
2023/05/24 10:47:49;;;;;;;11.30;3.95;;;;;;;14.64;67.04;102334.25;4982225;28;20042;-70
2023/05/24 10:50:21;;;;;;;12.30;5.45;;;;;;;14.71;66.36;102338.91;4981996;28;20026;-70
2023/05/24 10:52:49;;;;;;;7.50;3.20;;;;;;;14.68;64.44;102334.75;4981831;28;20026;-70
2023/05/24 10:55:14;;;;;;;13.35;3.40;;;;;;;14.61;64.76;102341.88;4982067;28;20035;-70
2023/05/24 10:57:40;;;;;;;10.52;4.05;;;;;;;14.62;66.54;102346.25;4980986;28;20114;-70
2023/05/24 11:00:24;;;;;;;7.32;2.50;;;;;;;14.61;66.08;102350.75;4981091;28;20062;-72
2023/05/24 11:02:50;;;;;;;17.25;4.43;;;;;;;14.57;65.56;102343.28;4978242;28;20034;-74
2023/05/24 11:05:17;;;;;;;11.52;3.00;;;;;;;14.58;65.99;102343.06;4981093;28;20030;-73
2023/05/24 11:07:42;;;;;;;13.40;4.63;;;;;;;14.62;67.32;102348.94;4966903;28;20771;-75
2023/05/24 11:10:12;;;;;;;13.48;3.60;;;;;;;14.62;67.54;102341.69;4980102;28;20030;-75
2023/05/24 11:12:39;;;;;;;7.00;2.53;;;;;;;14.69;66.99;102336.41;4981557;28;20950;-73
2023/05/24 11:15:08;;;;;;;15.27;4.00;;;;;;;14.68;66.63;102340.94;4981619;28;20033;-70
2023/05/24 11:18:05;;;;;;;10.90;4.03;;;;;;;14.81;67.96;102345.66;4981459;28;20473;-71